createdAt,value
2018-11-03T00:00:51.546Z,12.83
2018-11-03T00:03:20.182Z,16.57
2018-11-03T00:05:48.876Z,18.37
2018-11-03T00:08:17.475Z,25.27
2018-11-03T00:10:46.168Z,29.97
2018-11-03T00:13:14.858Z,29.27
2018-11-03T00:15:43.524Z,23.50
2018-11-03T00:18:12.183Z,20.80
2018-11-03T00:20:40.843Z,23.63
2018-11-03T00:23:09.688Z,17.00
2018-11-03T00:25:38.487Z,15.83
2018-11-03T00:28:07.165Z,14.80
2018-11-03T00:30:35.817Z,12.97
2018-11-03T00:33:04.707Z,14.70
2018-11-03T00:35:33.317Z,11.13
2018-11-03T00:38:02.069Z,10.50
2018-11-03T00:40:30.791Z,9.90
2018-11-03T00:42:59.433Z,13.63
2018-11-03T00:45:28.082Z,13.40
2018-11-03T00:47:56.790Z,11.10
2018-11-03T00:50:25.532Z,12.10
2018-11-03T00:52:54.214Z,9.90
2018-11-03T00:55:22.926Z,12.70
2018-11-03T00:57:51.668Z,13.00
2018-11-03T01:00:20.246Z,12.57
2018-11-03T01:02:49.858Z,10.73
2018-11-03T01:05:18.533Z,11.60
2018-11-03T01:07:47.684Z,13.80
2018-11-03T01:10:17.442Z,13.83
2018-11-03T01:12:46.080Z,16.40
2018-11-03T01:15:15.923Z,16.50
2018-11-03T01:17:44.801Z,15.00
2018-11-03T01:20:15.731Z,15.17
2018-11-03T01:22:44.477Z,15.73
2018-11-03T01:25:13.244Z,16.53
2018-11-03T01:27:42.141Z,15.23
2018-11-03T01:30:14.005Z,17.90
2018-11-03T01:32:42.830Z,20.43
2018-11-03T01:35:11.414Z,15.83
2018-11-03T01:37:40.433Z,19.40
2018-11-03T01:40:10.894Z,15.87
2018-11-03T01:42:39.683Z,13.27
2018-11-03T01:45:08.392Z,15.43
2018-11-03T01:47:37.622Z,13.73
2018-11-03T01:50:08.024Z,10.40
2018-11-03T01:52:37.672Z,11.40
2018-11-03T01:55:06.613Z,12.57
2018-11-03T01:57:35.905Z,12.03
2018-11-03T02:00:04.889Z,10.37
2018-11-03T02:02:33.537Z,11.73
2018-11-03T02:05:02.246Z,10.67
2018-11-03T02:07:31.605Z,11.43
2018-11-03T02:10:00.284Z,13.43
2018-11-03T02:12:28.929Z,11.63
2018-11-03T02:14:57.650Z,11.23
2018-11-03T02:17:26.306Z,11.23
2018-11-03T02:19:54.906Z,13.90
2018-11-03T02:22:23.598Z,12.07
2018-11-03T02:24:52.444Z,11.13
2018-11-03T02:27:22.167Z,12.33
2018-11-03T02:29:50.761Z,12.10
2018-11-03T02:32:19.394Z,12.30
2018-11-03T02:34:47.992Z,11.70
2018-11-03T02:37:16.607Z,11.40
2018-11-03T02:39:45.277Z,11.77
2018-11-03T02:42:13.881Z,11.67
2018-11-03T02:44:42.409Z,13.00
2018-11-03T02:47:11.081Z,13.17
2018-11-03T02:49:39.650Z,13.27
2018-11-03T02:52:08.290Z,12.37
2018-11-03T02:54:36.914Z,12.67
2018-11-03T02:57:05.667Z,14.23
2018-11-03T02:59:34.319Z,13.40
2018-11-03T03:02:02.937Z,12.13
2018-11-03T03:04:31.587Z,11.30
2018-11-03T03:07:00.242Z,12.97
2018-11-03T03:09:28.884Z,13.53
2018-11-03T03:11:57.499Z,10.57
2018-11-03T03:14:26.184Z,12.27
2018-11-03T03:16:54.818Z,11.97
2018-11-03T03:19:23.482Z,11.07
2018-11-03T03:21:52.162Z,13.57
2018-11-03T03:24:20.806Z,15.97
2018-11-03T03:26:49.473Z,12.10
2018-11-03T03:29:18.212Z,12.17
2018-11-03T03:31:46.795Z,12.33
2018-11-03T03:34:15.502Z,13.27
2018-11-03T03:36:44.160Z,13.67
2018-11-03T03:39:12.853Z,11.53
2018-11-03T03:41:41.593Z,12.70
2018-11-03T03:44:10.298Z,15.60
2018-11-03T03:46:38.979Z,16.23
2018-11-03T03:49:07.688Z,15.73
2018-11-03T03:51:36.346Z,14.67
2018-11-03T03:54:05.412Z,18.33
2018-11-03T03:56:34.016Z,18.00
2018-11-03T03:59:03.432Z,17.40
2018-11-03T04:01:32.094Z,17.20
2018-11-03T04:04:01.896Z,15.83
2018-11-03T04:06:30.544Z,15.90
2018-11-03T04:08:59.169Z,13.77
2018-11-03T04:11:27.821Z,16.47
2018-11-03T04:13:56.464Z,13.57
2018-11-03T04:16:25.150Z,14.27
2018-11-03T04:18:53.781Z,14.43
2018-11-03T04:21:27.919Z,16.10
2018-11-03T04:23:56.967Z,14.53
2018-11-03T04:26:26.608Z,13.23
2018-11-03T04:28:55.597Z,15.10
2018-11-03T04:31:24.312Z,15.77
2018-11-03T04:33:53.022Z,15.97
2018-11-03T04:36:21.720Z,12.90
2018-11-03T04:38:50.376Z,13.30
2018-11-03T04:41:19.011Z,15.20
2018-11-03T04:43:47.758Z,16.03
2018-11-03T04:46:16.377Z,15.23
2018-11-03T04:48:45.015Z,16.17
2018-11-03T04:51:13.635Z,12.13
2018-11-03T04:53:42.295Z,15.73
2018-11-03T04:56:11.103Z,14.23
2018-11-03T04:58:39.785Z,20.33
2018-11-03T05:01:08.425Z,15.67
2018-11-03T05:03:37.116Z,17.83
2018-11-03T05:06:05.993Z,13.70
2018-11-03T05:08:34.640Z,14.97
2018-11-03T05:11:03.632Z,17.70
2018-11-03T05:13:32.294Z,17.90
2018-11-03T05:16:00.996Z,14.07
2018-11-03T05:18:29.602Z,16.97
2018-11-03T05:20:58.267Z,14.77
2018-11-03T05:23:26.864Z,17.50
2018-11-03T05:25:55.541Z,14.07
2018-11-03T05:28:24.175Z,17.47
2018-11-03T05:30:52.864Z,18.13
2018-11-03T05:33:22.521Z,19.37
2018-11-03T05:35:51.213Z,14.87
2018-11-03T05:38:19.879Z,16.23
2018-11-03T05:40:48.541Z,16.13
2018-11-03T05:43:17.179Z,18.00
2018-11-03T05:45:45.851Z,18.10
2018-11-03T05:48:14.518Z,18.27
2018-11-03T05:50:43.207Z,20.93
2018-11-03T05:53:11.854Z,17.50
2018-11-03T05:55:41.261Z,19.87
2018-11-03T05:58:09.944Z,19.47
2018-11-03T06:00:38.657Z,20.23
2018-11-03T06:03:07.348Z,20.77
2018-11-03T06:05:35.966Z,17.90
2018-11-03T06:08:04.573Z,17.30
2018-11-03T06:10:33.144Z,18.10
2018-11-03T06:13:01.785Z,20.00
2018-11-03T06:15:30.549Z,18.33
2018-11-03T06:17:59.143Z,19.87
2018-11-03T06:20:27.832Z,19.60
2018-11-03T06:22:56.636Z,19.53
2018-11-03T06:25:25.545Z,18.70
2018-11-03T06:27:54.207Z,22.53
2018-11-03T06:30:22.815Z,22.23
2018-11-03T06:32:51.813Z,20.77
2018-11-03T06:35:20.527Z,20.27
2018-11-03T06:37:49.289Z,20.40
2018-11-03T06:40:17.994Z,19.00
2018-11-03T06:42:46.629Z,20.50
2018-11-03T06:45:15.314Z,19.33
2018-11-03T06:47:44.088Z,22.53
2018-11-03T06:50:12.814Z,19.10
2018-11-03T06:52:41.469Z,19.30
2018-11-03T06:55:10.111Z,19.87
2018-11-03T06:57:38.870Z,22.17
2018-11-03T07:00:08.600Z,18.80
2018-11-03T07:02:37.354Z,20.23
2018-11-03T07:05:07.368Z,17.80
2018-11-03T07:07:35.984Z,21.60
2018-11-03T07:10:05.230Z,33.27
2018-11-03T07:12:34.116Z,35.43
2018-11-03T07:15:02.673Z,28.40
2018-11-03T07:17:31.359Z,26.47
2018-11-03T07:20:00.030Z,44.83
2018-11-03T07:22:28.761Z,53.33
2018-11-03T07:24:57.418Z,46.87
2018-11-03T07:27:26.325Z,51.37
2018-11-03T07:29:55.778Z,33.97
2018-11-03T07:32:24.703Z,41.80
2018-11-03T07:34:53.395Z,39.77
2018-11-03T07:37:22.166Z,57.70
2018-11-03T07:39:50.940Z,49.00
2018-11-03T07:42:20.588Z,42.57
2018-11-03T07:44:49.376Z,41.23
2018-11-03T07:48:44.039Z,33.90
2018-11-03T07:51:12.678Z,39.60
2018-11-03T07:53:41.344Z,62.60
2018-11-03T07:56:10.067Z,50.63
2018-11-03T07:58:38.784Z,35.13
2018-11-03T08:01:07.500Z,30.87
2018-11-03T08:03:36.144Z,25.53
2018-11-03T08:06:04.931Z,26.80
2018-11-03T08:08:33.666Z,28.03
2018-11-03T08:11:05.326Z,27.87
2018-11-03T08:13:34.019Z,30.90
2018-11-03T08:16:02.643Z,27.13
2018-11-03T08:18:31.297Z,30.70
2018-11-03T08:21:00.112Z,27.07
2018-11-03T08:23:28.769Z,29.93
2018-11-03T08:25:57.561Z,29.20
2018-11-03T08:28:26.317Z,25.43
2018-11-03T08:30:55.080Z,27.13
2018-11-03T08:33:23.891Z,31.20
2018-11-03T08:35:52.671Z,27.70
2018-11-03T08:38:21.372Z,31.73
2018-11-03T08:40:50.224Z,33.27
2018-11-03T08:43:18.878Z,27.93
2018-11-03T08:45:47.603Z,41.93
2018-11-03T08:48:16.345Z,28.17
2018-11-03T08:50:44.933Z,24.63
2018-11-03T08:53:13.577Z,24.63
2018-11-03T08:55:42.315Z,27.53
2018-11-03T08:58:10.929Z,28.20
2018-11-03T09:00:39.541Z,29.47
2018-11-03T09:03:08.345Z,27.43
2018-11-03T09:05:36.983Z,28.50
2018-11-03T09:08:05.781Z,26.90
2018-11-03T09:10:34.373Z,25.63
2018-11-03T09:13:03.058Z,27.30
2018-11-03T09:15:32.418Z,31.73
2018-11-03T09:18:01.042Z,27.20
2018-11-03T09:20:29.860Z,27.60
2018-11-03T09:22:58.544Z,25.67
2018-11-03T09:25:27.712Z,33.20
2018-11-03T09:27:56.405Z,34.27
2018-11-03T09:30:35.857Z,32.23
2018-11-03T09:33:04.749Z,28.70
2018-11-03T09:35:33.684Z,33.80
2018-11-03T09:38:02.357Z,33.30
2018-11-03T09:40:58.792Z,33.73
2018-11-03T09:43:28.373Z,29.30
2018-11-03T09:45:56.933Z,27.47
2018-11-03T09:48:25.617Z,31.83
2018-11-03T09:50:54.879Z,28.90
2018-11-03T09:53:23.539Z,29.33
2018-11-03T09:55:52.304Z,29.87
2018-11-03T09:58:21.734Z,29.60
2018-11-03T10:00:51.089Z,28.80
2018-11-03T10:03:19.828Z,30.40
2018-11-03T10:05:48.573Z,32.07
2018-11-03T10:08:17.291Z,29.80
2018-11-03T10:10:46.357Z,27.43
2018-11-03T10:13:15.095Z,30.37
2018-11-03T10:15:43.834Z,31.33
2018-11-03T10:18:14.021Z,34.50
2018-11-03T10:20:42.707Z,28.50
2018-11-03T10:23:11.350Z,28.00
2018-11-03T10:25:40.024Z,31.90
2018-11-03T10:28:08.747Z,29.03
2018-11-03T10:30:37.583Z,30.83
2018-11-03T10:33:06.737Z,29.00
2018-11-03T10:35:35.438Z,25.93
2018-11-03T10:38:04.195Z,27.77
2018-11-03T10:40:33.162Z,25.97
2018-11-03T10:43:03.994Z,25.30
2018-11-03T10:45:34.600Z,26.07
2018-11-03T10:48:04.002Z,24.53
2018-11-03T10:50:32.742Z,32.23
2018-11-03T10:53:06.653Z,23.87
2018-11-03T10:55:36.354Z,25.60
2018-11-03T10:58:05.234Z,25.23
2018-11-03T11:03:30.071Z,26.07
2018-11-03T11:06:10.319Z,25.07
2018-11-03T11:08:44.242Z,31.93
2018-11-03T11:11:18.323Z,26.23
2018-11-03T11:13:47.461Z,28.20
2018-11-03T11:16:16.225Z,26.97
2018-11-03T11:18:44.911Z,28.17
2018-11-03T11:21:13.625Z,27.13
2018-11-03T11:23:42.283Z,27.40
2018-11-03T11:26:10.911Z,28.83
2018-11-03T11:28:39.676Z,28.27
2018-11-03T11:31:08.352Z,30.87
2018-11-03T11:33:37.032Z,28.23
2018-11-03T11:36:06.190Z,27.57
2018-11-03T11:38:34.933Z,23.47
2018-11-03T11:41:03.687Z,22.57
2018-11-03T11:43:32.453Z,22.93
2018-11-03T11:46:01.124Z,23.97
2018-11-03T11:48:29.866Z,24.63
2018-11-03T11:50:58.589Z,20.77
2018-11-03T11:53:27.235Z,21.67
2018-11-03T11:55:55.948Z,21.70
2018-11-03T11:58:25.415Z,25.77
2018-11-03T12:00:54.200Z,22.93
2018-11-03T12:03:22.949Z,23.43
2018-11-03T12:05:51.657Z,20.80
2018-11-03T12:08:20.268Z,21.83
2018-11-03T12:10:48.935Z,18.80
2018-11-03T12:13:17.704Z,20.27
2018-11-03T12:15:46.384Z,20.07
2018-11-03T12:18:15.133Z,21.60
2018-11-03T12:20:44.836Z,17.67
2018-11-03T12:23:13.515Z,19.37
2018-11-03T12:25:42.313Z,17.17
2018-11-03T12:28:10.899Z,19.47
2018-11-03T12:30:39.637Z,18.40
2018-11-03T12:33:08.630Z,16.73
2018-11-03T12:35:37.403Z,14.60
2018-11-03T12:38:06.345Z,16.20
2018-11-03T12:40:35.195Z,16.17
2018-11-03T12:43:03.975Z,13.97
2018-11-03T12:45:32.713Z,13.33
2018-11-03T12:48:01.451Z,14.87
2018-11-03T12:50:30.102Z,14.33
2018-11-03T12:52:58.744Z,12.97
2018-11-03T12:55:27.487Z,14.67
2018-11-03T12:57:56.260Z,10.17
2018-11-03T13:00:24.974Z,13.40
2018-11-03T13:02:53.695Z,11.93
2018-11-03T13:05:22.428Z,10.60
2018-11-03T13:07:51.198Z,11.23
2018-11-03T13:10:20.783Z,12.30
2018-11-03T13:12:49.604Z,11.53
2018-11-03T13:15:18.357Z,14.43
2018-11-03T13:17:47.511Z,10.27
2018-11-03T13:20:16.315Z,12.87
2018-11-03T13:22:45.026Z,13.47
2018-11-03T13:25:13.830Z,12.73
2018-11-03T13:27:43.099Z,14.80
2018-11-03T13:30:13.677Z,13.53
2018-11-03T13:32:42.431Z,11.37
2018-11-03T13:35:12.296Z,13.63
2018-11-03T13:37:41.336Z,14.73
2018-11-03T13:40:11.655Z,13.07
2018-11-03T13:42:40.660Z,11.73
2018-11-03T13:45:10.060Z,13.23
2018-11-03T13:47:39.326Z,12.40
2018-11-03T13:50:13.024Z,12.47
2018-11-03T13:52:43.733Z,13.60
2018-11-03T13:55:12.417Z,12.80
2018-11-03T13:57:42.317Z,13.10
2018-11-03T14:00:12.206Z,13.17
2018-11-03T14:02:41.878Z,12.53
2018-11-03T14:05:11.375Z,13.13
2018-11-03T14:07:40.015Z,13.10
2018-11-03T14:10:13.083Z,11.83
2018-11-03T14:12:42.302Z,13.40
2018-11-03T14:15:12.598Z,12.37
2018-11-03T14:17:41.334Z,14.07
2018-11-03T14:20:11.842Z,12.93
2018-11-03T14:22:40.956Z,13.77
2018-11-03T14:25:11.262Z,11.93
2018-11-03T14:27:40.366Z,11.73
2018-11-03T14:30:10.342Z,14.00
2018-11-03T14:32:39.266Z,14.00
2018-11-03T14:35:08.958Z,13.17
2018-11-03T14:37:37.811Z,12.77
2018-11-03T14:40:09.057Z,12.17
2018-11-03T14:42:37.973Z,13.27
2018-11-03T14:45:10.039Z,13.57
2018-11-03T14:47:38.741Z,13.87
2018-11-03T14:50:08.551Z,15.23
2018-11-03T14:52:40.057Z,13.30
2018-11-03T14:55:10.719Z,14.43
2018-11-03T14:57:39.669Z,13.33
2018-11-03T15:00:13.045Z,14.17
2018-11-03T15:02:41.994Z,13.73
2018-11-03T15:05:11.418Z,14.07
2018-11-03T15:07:40.409Z,14.20
2018-11-03T15:10:10.559Z,18.27
2018-11-03T15:12:39.657Z,16.77
2018-11-03T15:15:10.324Z,17.63
2018-11-03T15:17:39.206Z,15.23
2018-11-03T15:20:09.074Z,15.83
2018-11-03T15:22:37.967Z,16.90
2018-11-03T15:25:07.390Z,13.43
2018-11-03T15:27:36.206Z,15.87
2018-11-03T15:30:05.468Z,17.20
2018-11-03T15:32:34.206Z,17.80
2018-11-03T15:35:03.109Z,20.20
2018-11-03T15:37:31.789Z,27.33
2018-11-03T15:40:00.599Z,25.47
2018-11-03T15:42:29.341Z,20.70
2018-11-03T15:44:58.368Z,18.83
2018-11-03T15:47:27.174Z,18.50
2018-11-03T15:49:55.874Z,15.77
2018-11-03T15:52:24.695Z,17.57
2018-11-03T15:54:53.742Z,19.20
2018-11-03T15:57:22.434Z,17.70
2018-11-03T15:59:52.028Z,17.87
2018-11-03T16:02:20.991Z,19.07
2018-11-03T16:04:49.696Z,20.03
2018-11-03T16:07:18.628Z,18.87
2018-11-03T16:09:47.482Z,18.17
2018-11-03T16:12:16.343Z,19.80
2018-11-03T16:14:44.978Z,18.10
2018-11-03T16:17:13.626Z,18.80
2018-11-03T16:19:42.809Z,17.57
2018-11-03T16:22:11.797Z,18.17
2018-11-03T16:24:40.654Z,20.83
2018-11-03T16:27:09.513Z,17.13
2018-11-03T16:29:38.693Z,20.30
2018-11-03T16:32:07.552Z,21.30
2018-11-03T16:34:36.442Z,27.93
2018-11-03T16:37:05.443Z,39.77
2018-11-03T16:39:34.188Z,36.63
2018-11-03T16:42:03.006Z,30.90
2018-11-03T16:44:31.748Z,20.37
2018-11-03T16:47:00.518Z,20.80
2018-11-03T16:49:29.874Z,19.67
2018-11-03T16:51:58.509Z,17.60
2018-11-03T16:54:28.328Z,21.83
2018-11-03T16:56:57.238Z,19.20
2018-11-03T16:59:26.091Z,20.47
2018-11-03T17:01:54.887Z,19.50
2018-11-03T17:04:23.781Z,20.20
2018-11-03T17:06:52.748Z,20.80
2018-11-03T17:09:21.385Z,21.40
2018-11-03T17:11:50.161Z,19.30
2018-11-03T17:14:18.813Z,20.60
2018-11-03T17:16:47.447Z,22.10
2018-11-03T17:19:16.260Z,20.73
2018-11-03T17:21:45.158Z,19.97
2018-11-03T17:24:13.816Z,22.30
2018-11-03T17:26:43.208Z,20.83
2018-11-03T17:29:11.902Z,22.30
2018-11-03T17:31:40.633Z,20.67
2018-11-03T17:34:09.772Z,22.10
2018-11-03T17:36:38.826Z,26.43
2018-11-03T17:39:09.737Z,24.63
2018-11-03T17:41:38.536Z,27.37
2018-11-03T17:44:07.339Z,25.20
2018-11-03T17:46:36.482Z,22.23
2018-11-03T17:49:15.705Z,21.93
2018-11-03T17:51:50.370Z,24.47
2018-11-03T17:54:19.339Z,24.73
2018-11-03T17:56:48.179Z,25.10
2018-11-03T17:59:17.039Z,24.53
2018-11-03T18:01:45.884Z,22.03
2018-11-03T18:04:14.909Z,26.67
2018-11-03T18:06:43.843Z,24.20
2018-11-03T18:09:12.764Z,27.27
2018-11-03T18:11:41.551Z,25.27
2018-11-03T18:14:10.361Z,27.27
2018-11-03T18:16:39.208Z,29.53
2018-11-03T18:19:08.130Z,25.07
2018-11-03T18:21:37.261Z,27.27
2018-11-03T18:24:07.034Z,29.03
2018-11-03T18:26:35.965Z,26.70
2018-11-03T18:29:04.776Z,28.20
2018-11-03T18:31:33.596Z,28.87
2018-11-03T18:34:02.595Z,29.43
2018-11-03T18:36:31.383Z,26.40
2018-11-03T18:39:00.141Z,27.47
2018-11-03T18:41:29.046Z,35.57
2018-11-03T18:43:58.017Z,38.13
2018-11-03T18:46:30.988Z,49.70
2018-11-03T18:48:59.761Z,44.90
2018-11-03T18:51:28.566Z,47.30
2018-11-03T18:53:57.292Z,42.43
2018-11-03T18:56:26.122Z,42.43
2018-11-03T18:58:55.382Z,44.20
2018-11-03T19:01:24.308Z,40.90
2018-11-03T19:03:53.999Z,36.33
2018-11-03T19:06:23.166Z,37.47
2018-11-03T19:08:52.004Z,35.57
2018-11-03T19:11:21.086Z,34.27
2018-11-03T19:14:12.423Z,33.20
2018-11-03T19:16:41.287Z,32.20
2018-11-03T19:19:10.585Z,34.33
2018-11-03T19:21:39.378Z,28.93
2018-11-03T19:24:08.300Z,26.97
2018-11-03T19:26:36.957Z,26.60
2018-11-03T19:29:05.904Z,28.27
2018-11-03T19:31:34.833Z,27.63
2018-11-03T19:34:04.183Z,27.20
2018-11-03T19:36:33.034Z,29.07
2018-11-03T19:39:01.800Z,25.17
2018-11-03T19:41:30.715Z,26.47
2018-11-03T19:43:59.561Z,25.10
2018-11-03T19:46:28.485Z,26.70
2018-11-03T19:48:57.342Z,26.13
2018-11-03T19:51:26.425Z,27.90
2018-11-03T19:53:55.272Z,30.43
2018-11-03T19:56:24.109Z,28.53
2018-11-03T19:58:53.054Z,27.80
2018-11-03T20:01:21.881Z,27.63
2018-11-03T20:03:50.625Z,31.37
2018-11-03T20:06:19.718Z,29.17
2018-11-03T20:08:48.919Z,30.03
2018-11-03T20:11:17.830Z,30.27
2018-11-03T20:13:46.689Z,29.53
2018-11-03T20:16:15.394Z,30.43
2018-11-03T20:18:44.163Z,32.90
2018-11-03T20:21:12.943Z,51.40
2018-11-03T20:23:41.715Z,54.47
2018-11-03T20:26:10.441Z,46.47
2018-11-03T20:28:39.344Z,44.80
2018-11-03T20:31:08.024Z,47.47
2018-11-03T20:33:36.837Z,37.97
2018-11-03T20:36:05.698Z,44.60
2018-11-03T20:38:34.405Z,40.53
2018-11-03T20:41:03.197Z,34.93
2018-11-03T20:43:31.977Z,31.00
2018-11-03T20:46:00.772Z,27.83
2018-11-03T20:48:29.546Z,26.10
2018-11-03T20:51:03.681Z,26.60
2018-11-03T20:53:32.628Z,25.07
2018-11-03T20:56:01.501Z,26.03
2018-11-03T20:58:30.375Z,24.83
2018-11-03T21:00:59.169Z,24.63
2018-11-03T21:03:28.184Z,23.83
2018-11-03T21:05:56.884Z,20.53
2018-11-03T21:08:25.894Z,25.77
2018-11-03T21:10:54.831Z,23.60
2018-11-03T21:13:23.751Z,23.33
2018-11-03T21:15:52.617Z,22.23
2018-11-03T21:18:21.332Z,23.07
2018-11-03T21:20:50.092Z,23.10
2018-11-03T21:23:19.102Z,24.73
2018-11-03T21:25:48.003Z,21.20
2018-11-03T21:28:16.728Z,24.27
2018-11-03T21:30:45.552Z,22.37
2018-11-03T21:33:14.719Z,21.30
2018-11-03T21:35:43.156Z,23.77
2018-11-03T21:38:11.991Z,21.23
2018-11-03T21:40:40.770Z,23.80
2018-11-03T21:43:09.564Z,23.57
2018-11-03T21:45:38.451Z,25.37
2018-11-03T21:48:07.608Z,27.40
2018-11-03T21:50:36.334Z,29.63
2018-11-03T21:53:05.515Z,28.33
2018-11-03T21:55:34.267Z,26.77
2018-11-03T21:58:03.030Z,23.57
2018-11-03T22:00:31.900Z,22.47
2018-11-03T22:03:00.685Z,25.30
2018-11-03T22:05:29.401Z,21.13
2018-11-03T22:07:58.223Z,23.53
2018-11-03T22:10:27.140Z,21.27
2018-11-03T22:12:55.870Z,24.57
2018-11-03T22:15:24.780Z,19.80
2018-11-03T22:17:54.764Z,24.93
2018-11-03T22:20:25.218Z,20.93
2018-11-03T22:22:54.854Z,22.40
2018-11-03T22:25:23.714Z,21.90
2018-11-03T22:27:52.561Z,22.27
2018-11-03T22:30:21.332Z,20.93
2018-11-03T22:32:50.221Z,24.40
2018-11-03T22:35:19.135Z,21.20
2018-11-03T22:37:48.831Z,22.53
2018-11-03T22:40:17.643Z,20.37
2018-11-03T22:42:46.366Z,24.67
2018-11-03T22:45:15.227Z,22.63
2018-11-03T22:47:43.960Z,24.37
2018-11-03T22:50:13.272Z,25.07
2018-11-03T22:52:42.127Z,25.30
2018-11-03T22:55:10.860Z,25.30
2018-11-03T22:57:39.527Z,24.73
2018-11-03T23:00:11.332Z,20.60
2018-11-03T23:02:40.223Z,23.40
2018-11-03T23:05:10.136Z,24.17
2018-11-03T23:07:38.848Z,23.73
2018-11-03T23:10:07.826Z,27.80
2018-11-03T23:12:37.402Z,24.20
2018-11-03T23:15:07.356Z,25.90
2018-11-03T23:17:36.178Z,23.90
2018-11-03T23:20:05.987Z,26.23
2018-11-03T23:22:34.775Z,25.53
2018-11-03T23:25:03.561Z,26.40
2018-11-03T23:27:32.287Z,29.93
2018-11-03T23:30:02.195Z,28.33
2018-11-03T23:32:30.780Z,22.37
2018-11-03T23:34:59.543Z,23.73
2018-11-03T23:37:28.472Z,25.60
2018-11-03T23:39:57.184Z,21.67
2018-11-03T23:42:25.906Z,22.07
2018-11-03T23:44:54.605Z,19.23
2018-11-03T23:47:23.338Z,21.47
2018-11-03T23:49:52.101Z,21.00
2018-11-03T23:52:25.017Z,20.30
2018-11-03T23:54:53.747Z,21.50
2018-11-03T23:57:22.425Z,21.63
2018-11-03T23:59:51.329Z,22.70
